createdAt,value
2018-03-04T16:36:22.657Z,60.1
2018-03-04T16:37:22.569Z,59.5
2018-03-04T16:38:22.479Z,59.9
2018-03-04T16:41:21.896Z,65
2018-03-04T16:43:21.555Z,66.7
2018-03-04T16:45:21.226Z,68.1
2018-03-04T16:46:21.625Z,68.6
2018-03-04T16:47:21.578Z,68.8
2018-03-04T16:48:21.497Z,69.4
2018-03-04T16:50:21.178Z,69.5
2018-03-04T16:51:21.130Z,69.9
2018-03-04T16:53:20.943Z,69.8
2018-03-04T16:55:20.607Z,70.5
2018-03-04T16:57:20.626Z,71.1
2018-03-04T16:59:20.243Z,71.6
2018-03-04T17:01:20.130Z,71.9
2018-03-04T17:03:19.800Z,72.1
2018-03-04T17:06:19.615Z,72.7
2018-03-04T17:08:19.253Z,73.6
2018-03-04T17:10:18.901Z,73.6
2018-03-04T17:12:18.608Z,74.3
2018-03-04T17:14:18.247Z,74.2
2018-03-04T17:16:18.261Z,74.1
2018-03-04T17:20:17.435Z,73.6
2018-03-04T17:22:17.139Z,74.7
2018-03-04T17:25:16.541Z,74.9
2018-03-04T17:26:16.855Z,74.6
2018-03-04T17:28:16.526Z,74.9
2018-03-04T17:30:16.185Z,75
2018-03-04T17:32:16.005Z,75.4
2018-03-04T17:34:15.765Z,75.8
2018-03-04T17:38:15.805Z,75.6
2018-03-04T17:41:15.486Z,76.3
2018-03-04T17:43:15.188Z,76
2018-03-04T17:48:14.859Z,76.3
2018-03-04T17:51:14.331Z,76.5
2018-03-04T17:54:13.730Z,76.5
2018-03-04T17:56:13.784Z,76.7
2018-03-04T17:58:13.460Z,76.7
2018-03-04T18:00:13.141Z,77.1
2018-03-04T18:02:12.785Z,76.8
2018-03-04T18:04:12.445Z,76.9
2018-03-04T18:08:11.959Z,78.3
2018-03-04T18:10:11.622Z,78.8
2018-03-04T18:12:11.871Z,79.3
2018-03-04T18:14:11.655Z,79
2018-03-04T18:16:11.750Z,79.4
2018-03-04T18:18:11.394Z,79.5
2018-03-04T18:23:10.374Z,81.6
2018-03-04T18:27:09.959Z,80.8
2018-03-04T18:33:09.287Z,81
2018-03-04T18:35:08.994Z,82.1
2018-03-04T18:40:08.511Z,81.3
2018-03-04T18:42:08.423Z,81.5
2018-03-04T18:45:07.932Z,82.1
2018-03-04T18:49:07.524Z,82.2
2018-03-04T18:51:07.223Z,82.1
2018-03-04T18:54:06.632Z,81.8
2018-03-04T18:56:06.809Z,82.6
2018-03-04T18:59:06.620Z,83.1
2018-03-04T19:01:06.262Z,82.8
2018-03-04T19:03:06.485Z,84.5
2018-03-04T19:06:07.235Z,83.7
2018-03-04T19:08:06.855Z,84
2018-03-04T19:13:05.810Z,83.8
2018-03-04T19:15:05.465Z,84.7
2018-03-04T19:16:05.833Z,85.4
2018-03-04T19:18:05.536Z,85.8
2018-03-04T19:20:05.190Z,85.7
2018-03-04T19:22:04.928Z,85.4
2018-03-04T19:25:04.327Z,85.6
2018-03-04T19:26:04.659Z,85.7
2018-03-04T19:28:04.365Z,85.6
2018-03-04T19:30:04.047Z,85.9
2018-03-04T19:32:03.803Z,85.9
2018-03-04T19:34:03.693Z,85.9
2018-03-04T19:38:03.348Z,85.4
2018-03-04T19:42:02.527Z,85.2
2018-03-04T19:44:02.380Z,85.4
2018-03-04T19:46:02.454Z,84.9
2018-03-04T19:48:02.490Z,85.4
2018-03-04T19:53:01.476Z,84.8
2018-03-04T19:55:01.168Z,84.7
2018-03-04T19:56:01.860Z,84.9
2018-03-04T19:58:01.815Z,85.5
2018-03-04T20:00:01.464Z,85.3
2018-03-04T20:02:01.413Z,85.4
2018-03-04T20:05:01.080Z,85.3
2018-03-04T20:06:01.381Z,85.2
2018-03-04T20:08:01.067Z,85.4
2018-03-04T20:10:00.768Z,85
2018-03-04T20:13:00.214Z,85.6
2018-03-04T20:14:59.913Z,85.6
2018-03-04T20:16:00.251Z,85.8
2018-03-04T20:18:00.072Z,85.8
2018-03-04T20:19:59.791Z,85.2
2018-03-04T20:22:59.188Z,85.2
2018-03-04T20:25:58.967Z,84.8
2018-03-04T20:27:58.590Z,84.7
2018-03-04T20:30:58.703Z,84.4
2018-03-04T20:32:58.353Z,84.4
2018-03-04T20:34:58.006Z,84.5
2018-03-04T20:35:58.329Z,84.8
2018-03-04T20:37:58.176Z,84.8
2018-03-04T20:39:57.813Z,85
2018-03-04T20:42:57.293Z,84.1
2018-03-04T20:45:57.188Z,83.5
2018-03-04T20:47:56.846Z,83.4
2018-03-04T20:49:56.487Z,82.8
2018-03-04T20:51:56.142Z,82.7
2018-03-04T20:53:55.792Z,82.2
2018-03-04T20:55:55.835Z,81.8
2018-03-04T21:01:54.520Z,80.7
2018-03-04T21:03:54.193Z,81.2
2018-03-04T21:08:53.499Z,81.2
2018-03-04T21:10:53.134Z,81.7
2018-03-04T21:13:52.601Z,82.6
2018-03-04T21:15:52.644Z,84.8
2018-03-04T21:17:52.291Z,85.4
2018-03-04T21:21:51.458Z,86
2018-03-04T21:23:51.138Z,86.2
2018-03-04T21:26:50.910Z,86.3
2018-03-04T21:31:49.846Z,86.3
2018-03-04T21:33:49.502Z,86.2
2018-03-04T21:35:49.555Z,85.7
2018-03-04T21:37:49.204Z,85.8
2018-03-04T21:39:48.872Z,85.9
2018-03-04T21:41:48.502Z,85.8
2018-03-04T21:44:47.935Z,85.3
2018-03-04T21:46:48.029Z,85.3
2018-03-04T21:50:47.252Z,85.3
2018-03-04T21:52:46.870Z,85.3
2018-03-04T21:55:46.683Z,85.9
2018-03-04T21:57:46.335Z,85.9
2018-03-04T21:59:45.985Z,86.2
2018-03-04T22:02:45.450Z,85.8
2018-03-04T22:04:45.108Z,86
2018-03-04T22:05:45.421Z,86.3
2018-03-04T22:08:44.810Z,86.4
2018-03-04T22:11:44.174Z,86.9
2018-03-04T22:13:43.821Z,86.9
2018-03-04T22:16:43.668Z,87.4
2018-03-04T22:19:43.059Z,87.7
2018-03-04T22:22:42.428Z,87.2
2018-03-04T22:24:42.077Z,87
2018-03-04T22:26:42.353Z,87.2
2018-03-04T22:28:42.278Z,87.8
2018-03-04T22:34:40.902Z,86.7
2018-03-04T22:35:41.201Z,86.6
2018-03-04T22:37:40.889Z,87
2018-03-04T22:41:40.045Z,87.2
2018-03-04T22:43:39.774Z,87.3
2018-03-04T22:45:39.824Z,88.1
2018-03-04T22:47:39.491Z,87.6
2018-03-04T22:52:38.574Z,86.6
2018-03-04T22:54:38.213Z,87
2018-03-04T22:55:38.498Z,87.2
2018-03-04T22:57:38.140Z,87.6
2018-03-04T23:00:37.535Z,87.4
2018-03-04T23:05:36.863Z,86
2018-03-04T23:08:36.225Z,85.7
2018-03-04T23:10:35.866Z,86
2018-03-04T23:14:34.978Z,86.3
2018-03-04T23:15:35.287Z,86.4
2018-03-04T23:28:32.483Z,81.1
2018-03-04T23:30:32.159Z,80.5
2018-03-04T23:32:31.801Z,79.9
2018-03-04T23:34:31.421Z,80.1
2018-03-04T23:35:31.752Z,79.9
2018-03-04T23:41:30.378Z,78.9
2018-03-04T23:43:30.011Z,78.8
2018-03-04T23:45:30.024Z,78.1
2018-03-04T23:47:29.660Z,77.9
2018-03-04T23:52:28.500Z,77.7
2018-03-04T23:56:28.036Z,77.8
2018-03-04T23:58:27.693Z,78.3
